sensor_id;sensor_type;location;lat;lon;timestamp;temperature;humidity
66586;SHT30;53444;45.822;16.092;2023-03-05T00:00:39;3.62;83.51
66586;SHT30;53444;45.822;16.092;2023-03-05T00:03:05;3.62;82.87
66586;SHT30;53444;45.822;16.092;2023-03-05T00:05:33;3.67;82.40
66586;SHT30;53444;45.822;16.092;2023-03-05T00:07:59;3.67;81.41
66586;SHT30;53444;45.822;16.092;2023-03-05T00:10:26;3.66;80.81
66586;SHT30;53444;45.822;16.092;2023-03-05T00:12:54;3.66;80.31
66586;SHT30;53444;45.822;16.092;2023-03-05T00:15:21;3.70;79.54
66586;SHT30;53444;45.822;16.092;2023-03-05T00:17:48;3.69;79.23
66586;SHT30;53444;45.822;16.092;2023-03-05T00:20:15;3.74;78.99
66586;SHT30;53444;45.822;16.092;2023-03-05T00:22:41;3.69;78.80
66586;SHT30;53444;45.822;16.092;2023-03-05T00:25:08;3.66;78.44
66586;SHT30;53444;45.822;16.092;2023-03-05T00:27:35;3.64;78.27
66586;SHT30;53444;45.822;16.092;2023-03-05T00:30:04;3.62;78.27
66586;SHT30;53444;45.822;16.092;2023-03-05T00:32:31;3.60;78.07
66586;SHT30;53444;45.822;16.092;2023-03-05T00:34:57;3.55;77.97
66586;SHT30;53444;45.822;16.092;2023-03-05T00:37:24;3.46;78.28
66586;SHT30;53444;45.822;16.092;2023-03-05T00:39:51;3.47;78.10
66586;SHT30;53444;45.822;16.092;2023-03-05T00:42:18;3.49;78.14
66586;SHT30;53444;45.822;16.092;2023-03-05T00:44:44;3.46;77.69
66586;SHT30;53444;45.822;16.092;2023-03-05T00:47:12;3.47;77.75
66586;SHT30;53444;45.822;16.092;2023-03-05T00:49:42;3.46;77.69
66586;SHT30;53444;45.822;16.092;2023-03-05T00:52:09;3.46;77.49
66586;SHT30;53444;45.822;16.092;2023-03-05T00:54:35;3.43;77.81
66586;SHT30;53444;45.822;16.092;2023-03-05T00:57:02;3.32;77.93
66586;SHT30;53444;45.822;16.092;2023-03-05T00:59:30;3.33;77.85
66586;SHT30;53444;45.822;16.092;2023-03-05T01:01:57;3.30;77.93
66586;SHT30;53444;45.822;16.092;2023-03-05T01:04:25;3.35;77.97
66586;SHT30;53444;45.822;16.092;2023-03-05T01:06:52;3.32;77.82
66586;SHT30;53444;45.822;16.092;2023-03-05T01:09:18;3.25;77.88
66586;SHT30;53444;45.822;16.092;2023-03-05T01:11:46;3.32;77.78
66586;SHT30;53444;45.822;16.092;2023-03-05T01:14:13;3.25;77.52
66586;SHT30;53444;45.822;16.092;2023-03-05T01:16:39;3.30;77.66
66586;SHT30;53444;45.822;16.092;2023-03-05T01:19:06;3.22;77.60
66586;SHT30;53444;45.822;16.092;2023-03-05T01:21:34;3.26;77.81
66586;SHT30;53444;45.822;16.092;2023-03-05T01:24:01;3.25;77.73
66586;SHT30;53444;45.822;16.092;2023-03-05T01:26:28;3.22;77.75
66586;SHT30;53444;45.822;16.092;2023-03-05T01:28:59;3.20;77.72
66586;SHT30;53444;45.822;16.092;2023-03-05T01:31:26;3.18;77.86
66586;SHT30;53444;45.822;16.092;2023-03-05T01:33:53;3.22;77.45
66586;SHT30;53444;45.822;16.092;2023-03-05T01:36:21;3.23;77.40
66586;SHT30;53444;45.822;16.092;2023-03-05T01:38:50;3.22;77.61
66586;SHT30;53444;45.822;16.092;2023-03-05T01:41:18;3.20;77.57
66586;SHT30;53444;45.822;16.092;2023-03-05T01:43:46;3.20;77.55
66586;SHT30;53444;45.822;16.092;2023-03-05T01:46:31;3.19;77.58
66586;SHT30;53444;45.822;16.092;2023-03-05T01:49:11;3.11;77.90
66586;SHT30;53444;45.822;16.092;2023-03-05T01:51:42;3.19;77.73
66586;SHT30;53444;45.822;16.092;2023-03-05T01:54:13;3.18;78.10
66586;SHT30;53444;45.822;16.092;2023-03-05T01:56:41;3.22;77.66
66586;SHT30;53444;45.822;16.092;2023-03-05T01:59:09;3.18;78.39
66586;SHT30;53444;45.822;16.092;2023-03-05T02:01:39;3.13;78.06
66586;SHT30;53444;45.822;16.092;2023-03-05T02:04:07;3.15;77.90
66586;SHT30;53444;45.822;16.092;2023-03-05T02:06:35;3.19;77.88
66586;SHT30;53444;45.822;16.092;2023-03-05T02:09:03;3.15;78.04
66586;SHT30;53444;45.822;16.092;2023-03-05T02:11:31;3.06;77.96
66586;SHT30;53444;45.822;16.092;2023-03-05T02:13:58;3.01;78.45
66586;SHT30;53444;45.822;16.092;2023-03-05T02:16:25;2.99;78.35
66586;SHT30;53444;45.822;16.092;2023-03-05T02:19:00;2.99;78.41
66586;SHT30;53444;45.822;16.092;2023-03-05T02:21:36;2.95;78.69
66586;SHT30;53444;45.822;16.092;2023-03-05T02:24:04;2.88;78.90
66586;SHT30;53444;45.822;16.092;2023-03-05T02:26:30;2.88;79.56
66586;SHT30;53444;45.822;16.092;2023-03-05T02:28:58;2.75;79.38
66586;SHT30;53444;45.822;16.092;2023-03-05T02:31:26;2.75;79.42
66586;SHT30;53444;45.822;16.092;2023-03-05T02:33:53;2.65;80.05
66586;SHT30;53444;45.822;16.092;2023-03-05T02:36:22;2.73;80.34
66586;SHT30;53444;45.822;16.092;2023-03-05T02:38:50;2.73;80.51
66586;SHT30;53444;45.822;16.092;2023-03-05T02:41:18;2.77;80.61
66586;SHT30;53444;45.822;16.092;2023-03-05T02:43:45;2.68;80.97
66586;SHT30;53444;45.822;16.092;2023-03-05T02:46:12;2.65;80.61
66586;SHT30;53444;45.822;16.092;2023-03-05T02:48:38;2.65;80.76
66586;SHT30;53444;45.822;16.092;2023-03-05T02:51:06;2.68;80.11
66586;SHT30;53444;45.822;16.092;2023-03-05T02:53:33;2.71;80.07
66586;SHT30;53444;45.822;16.092;2023-03-05T02:56:02;2.83;80.33
66586;SHT30;53444;45.822;16.092;2023-03-05T02:58:30;2.83;79.92
66586;SHT30;53444;45.822;16.092;2023-03-05T03:01:12;2.81;80.17
66586;SHT30;53444;45.822;16.092;2023-03-05T03:03:44;2.81;80.30
66586;SHT30;53444;45.822;16.092;2023-03-05T03:06:12;2.87;80.29
66586;SHT30;53444;45.822;16.092;2023-03-05T03:08:38;2.88;80.01
66586;SHT30;53444;45.822;16.092;2023-03-05T03:11:08;2.99;79.87
66586;SHT30;53444;45.822;16.092;2023-03-05T03:13:37;3.08;79.56
66586;SHT30;53444;45.822;16.092;2023-03-05T03:16:06;3.15;79.42
66586;SHT30;53444;45.822;16.092;2023-03-05T03:18:33;3.15;79.52
66586;SHT30;53444;45.822;16.092;2023-03-05T03:21:00;3.18;79.59
66586;SHT30;53444;45.822;16.092;2023-03-05T03:23:27;3.15;79.55
66586;SHT30;53444;45.822;16.092;2023-03-05T03:25:54;3.15;79.01
66586;SHT30;53444;45.822;16.092;2023-03-05T03:28:22;3.13;78.44
66586;SHT30;53444;45.822;16.092;2023-03-05T03:30:49;3.08;78.62
66586;SHT30;53444;45.822;16.092;2023-03-05T03:33:16;3.09;79.39
66586;SHT30;53444;45.822;16.092;2023-03-05T03:35:43;3.02;79.11
66586;SHT30;53444;45.822;16.092;2023-03-05T03:38:10;2.96;78.80
66586;SHT30;53444;45.822;16.092;2023-03-05T03:40:38;2.98;79.36
66586;SHT30;53444;45.822;16.092;2023-03-05T03:43:05;3.09;79.14
66586;SHT30;53444;45.822;16.092;2023-03-05T03:45:33;3.09;78.94
66586;SHT30;53444;45.822;16.092;2023-03-05T03:47:59;3.05;79.16
66586;SHT30;53444;45.822;16.092;2023-03-05T03:50:26;2.99;79.38
66586;SHT30;53444;45.822;16.092;2023-03-05T03:52:53;3.05;79.26
66586;SHT30;53444;45.822;16.092;2023-03-05T03:55:19;3.04;78.91
66586;SHT30;53444;45.822;16.092;2023-03-05T03:57:46;3.12;78.53
66586;SHT30;53444;45.822;16.092;2023-03-05T04:00:13;3.08;78.54
66586;SHT30;53444;45.822;16.092;2023-03-05T04:02:41;3.08;79.08
66586;SHT30;53444;45.822;16.092;2023-03-05T04:05:09;3.09;79.22
66586;SHT30;53444;45.822;16.092;2023-03-05T04:07:35;3.12;79.45
66586;SHT30;53444;45.822;16.092;2023-03-05T04:10:03;3.09;79.36
66586;SHT30;53444;45.822;16.092;2023-03-05T04:12:29;3.04;79.37
66586;SHT30;53444;45.822;16.092;2023-03-05T04:14:56;2.98;79.55
66586;SHT30;53444;45.822;16.092;2023-03-05T04:17:23;3.05;79.81
66586;SHT30;53444;45.822;16.092;2023-03-05T04:19:51;3.04;80.19
66586;SHT30;53444;45.822;16.092;2023-03-05T04:22:17;2.96;80.47
66586;SHT30;53444;45.822;16.092;2023-03-05T04:24:44;2.96;80.44
66586;SHT30;53444;45.822;16.092;2023-03-05T04:27:11;2.87;80.35
66586;SHT30;53444;45.822;16.092;2023-03-05T04:29:38;2.87;80.50
66586;SHT30;53444;45.822;16.092;2023-03-05T04:32:05;2.68;81.33
66586;SHT30;53444;45.822;16.092;2023-03-05T04:34:32;2.68;80.91
66586;SHT30;53444;45.822;16.092;2023-03-05T04:37:00;2.65;80.77
66586;SHT30;53444;45.822;16.092;2023-03-05T04:39:27;2.62;81.27
66586;SHT30;53444;45.822;16.092;2023-03-05T04:41:54;2.57;81.55
66586;SHT30;53444;45.822;16.092;2023-03-05T04:44:21;2.54;81.73
66586;SHT30;53444;45.822;16.092;2023-03-05T04:46:50;2.60;81.75
66586;SHT30;53444;45.822;16.092;2023-03-05T04:49:17;2.68;81.25
66586;SHT30;53444;45.822;16.092;2023-03-05T04:51:43;2.75;81.25
66586;SHT30;53444;45.822;16.092;2023-03-05T04:54:11;2.77;81.36
66586;SHT30;53444;45.822;16.092;2023-03-05T04:56:38;2.77;81.48
66586;SHT30;53444;45.822;16.092;2023-03-05T04:59:05;2.84;81.37
66586;SHT30;53444;45.822;16.092;2023-03-05T05:01:31;2.85;81.01
66586;SHT30;53444;45.822;16.092;2023-03-05T05:03:59;2.80;81.41
66586;SHT30;53444;45.822;16.092;2023-03-05T05:06:26;2.73;81.68
66586;SHT30;53444;45.822;16.092;2023-03-05T05:08:53;2.67;82.83
66586;SHT30;53444;45.822;16.092;2023-03-05T05:11:21;2.62;82.23
66586;SHT30;53444;45.822;16.092;2023-03-05T05:13:47;2.71;81.94
66586;SHT30;53444;45.822;16.092;2023-03-05T05:16:14;2.67;82.06
66586;SHT30;53444;45.822;16.092;2023-03-05T05:18:41;2.73;82.43
66586;SHT30;53444;45.822;16.092;2023-03-05T05:21:08;2.84;82.02
66586;SHT30;53444;45.822;16.092;2023-03-05T05:23:36;2.81;82.12
66586;SHT30;53444;45.822;16.092;2023-03-05T05:26:05;2.78;82.24
66586;SHT30;53444;45.822;16.092;2023-03-05T05:28:34;2.81;82.64
66586;SHT30;53444;45.822;16.092;2023-03-05T05:31:06;2.75;82.97
66586;SHT30;53444;45.822;16.092;2023-03-05T05:33:33;2.67;83.33
66586;SHT30;53444;45.822;16.092;2023-03-05T05:36:01;2.67;83.56
66586;SHT30;53444;45.822;16.092;2023-03-05T05:38:27;2.75;82.94
66586;SHT30;53444;45.822;16.092;2023-03-05T05:40:57;2.87;82.50
66586;SHT30;53444;45.822;16.092;2023-03-05T05:43:26;2.94;82.66
66586;SHT30;53444;45.822;16.092;2023-03-05T05:45:58;3.01;82.68
66586;SHT30;53444;45.822;16.092;2023-03-05T05:48:24;2.95;82.23
66586;SHT30;53444;45.822;16.092;2023-03-05T05:50:51;2.88;81.96
66586;SHT30;53444;45.822;16.092;2023-03-05T05:53:18;2.88;82.17
66586;SHT30;53444;45.822;16.092;2023-03-05T05:55:44;2.96;81.64
66586;SHT30;53444;45.822;16.092;2023-03-05T05:58:11;3.16;81.59
66586;SHT30;53444;45.822;16.092;2023-03-05T06:00:38;3.19;82.04
66586;SHT30;53444;45.822;16.092;2023-03-05T06:03:06;3.25;81.81
66586;SHT30;53444;45.822;16.092;2023-03-05T06:05:33;3.25;81.76
66586;SHT30;53444;45.822;16.092;2023-03-05T06:07:59;3.26;81.36
66586;SHT30;53444;45.822;16.092;2023-03-05T06:10:26;3.30;81.38
66586;SHT30;53444;45.822;16.092;2023-03-05T06:12:53;3.35;81.25
66586;SHT30;53444;45.822;16.092;2023-03-05T06:15:20;3.44;80.73
66586;SHT30;53444;45.822;16.092;2023-03-05T06:17:46;3.37;81.28
66586;SHT30;53444;45.822;16.092;2023-03-05T06:20:16;3.36;80.79
66586;SHT30;53444;45.822;16.092;2023-03-05T06:22:43;3.40;80.90
66586;SHT30;53444;45.822;16.092;2023-03-05T06:25:10;3.56;80.90
66586;SHT30;53444;45.822;16.092;2023-03-05T06:27:37;3.64;80.52
66586;SHT30;53444;45.822;16.092;2023-03-05T06:30:05;3.73;80.50
66586;SHT30;53444;45.822;16.092;2023-03-05T06:32:32;3.78;80.20
66586;SHT30;53444;45.822;16.092;2023-03-05T06:34:59;3.83;80.15
66586;SHT30;53444;45.822;16.092;2023-03-05T06:37:27;3.86;80.40
66586;SHT30;53444;45.822;16.092;2023-03-05T06:39:53;3.88;79.95
66586;SHT30;53444;45.822;16.092;2023-03-05T06:42:20;3.88;79.51
66586;SHT30;53444;45.822;16.092;2023-03-05T06:44:47;3.93;79.26
66586;SHT30;53444;45.822;16.092;2023-03-05T06:47:13;4.05;78.92
66586;SHT30;53444;45.822;16.092;2023-03-05T06:49:40;4.18;78.23
66586;SHT30;53444;45.822;16.092;2023-03-05T06:52:08;4.14;77.90
66586;SHT30;53444;45.822;16.092;2023-03-05T06:54:38;4.21;77.30
66586;SHT30;53444;45.822;16.092;2023-03-05T06:57:05;4.24;76.78
66586;SHT30;53444;45.822;16.092;2023-03-05T06:59:32;4.35;76.41
66586;SHT30;53444;45.822;16.092;2023-03-05T07:01:59;4.39;76.76
66586;SHT30;53444;45.822;16.092;2023-03-05T07:04:26;4.38;76.22
66586;SHT30;53444;45.822;16.092;2023-03-05T07:06:53;4.32;76.08
66586;SHT30;53444;45.822;16.092;2023-03-05T07:09:20;4.37;76.40
66586;SHT30;53444;45.822;16.092;2023-03-05T07:11:49;4.32;75.79
66586;SHT30;53444;45.822;16.092;2023-03-05T07:14:15;4.38;75.62
66586;SHT30;53444;45.822;16.092;2023-03-05T07:16:42;4.44;76.43
66586;SHT30;53444;45.822;16.092;2023-03-05T07:19:10;4.49;75.52
66586;SHT30;53444;45.822;16.092;2023-03-05T07:21:37;4.46;75.63
66586;SHT30;53444;45.822;16.092;2023-03-05T07:24:04;4.51;75.39
66586;SHT30;53444;45.822;16.092;2023-03-05T07:26:32;4.53;75.05
66586;SHT30;53444;45.822;16.092;2023-03-05T07:29:00;4.66;74.37
66586;SHT30;53444;45.822;16.092;2023-03-05T07:31:28;4.65;73.36
66586;SHT30;53444;45.822;16.092;2023-03-05T07:33:57;4.66;73.60
66586;SHT30;53444;45.822;16.092;2023-03-05T07:36:24;4.73;73.99
66586;SHT30;53444;45.822;16.092;2023-03-05T07:38:51;4.82;74.70
66586;SHT30;53444;45.822;16.092;2023-03-05T07:41:21;4.83;73.40
66586;SHT30;53444;45.822;16.092;2023-03-05T07:44:01;4.82;72.83
66586;SHT30;53444;45.822;16.092;2023-03-05T07:46:34;4.92;72.58
66586;SHT30;53444;45.822;16.092;2023-03-05T07:49:01;4.97;72.83
66586;SHT30;53444;45.822;16.092;2023-03-05T07:51:36;5.10;72.24
66586;SHT30;53444;45.822;16.092;2023-03-05T07:54:03;5.11;71.07
66586;SHT30;53444;45.822;16.092;2023-03-05T07:56:31;5.13;71.19
66586;SHT30;53444;45.822;16.092;2023-03-05T07:59:01;5.20;71.58
66586;SHT30;53444;45.822;16.092;2023-03-05T08:01:29;5.33;71.47
66586;SHT30;53444;45.822;16.092;2023-03-05T08:03:58;5.44;69.64
66586;SHT30;53444;45.822;16.092;2023-03-05T08:06:24;5.48;70.15
66586;SHT30;53444;45.822;16.092;2023-03-05T08:08:51;5.56;70.79
66586;SHT30;53444;45.822;16.092;2023-03-05T08:11:18;5.74;69.93
66586;SHT30;53444;45.822;16.092;2023-03-05T08:13:45;5.88;69.27
66586;SHT30;53444;45.822;16.092;2023-03-05T08:16:13;5.89;67.44
66586;SHT30;53444;45.822;16.092;2023-03-05T08:18:40;5.96;67.24
66586;SHT30;53444;45.822;16.092;2023-03-05T08:21:16;6.03;65.36
66586;SHT30;53444;45.822;16.092;2023-03-05T08:23:43;6.12;64.39
66586;SHT30;53444;45.822;16.092;2023-03-05T08:26:15;6.23;65.35
66586;SHT30;53444;45.822;16.092;2023-03-05T08:28:42;6.37;65.00
66586;SHT30;53444;45.822;16.092;2023-03-05T08:31:10;6.47;64.06
66586;SHT30;53444;45.822;16.092;2023-03-05T08:33:38;6.56;62.46
66586;SHT30;53444;45.822;16.092;2023-03-05T08:36:06;6.58;61.90
66586;SHT30;53444;45.822;16.092;2023-03-05T08:38:34;6.56;60.38
66586;SHT30;53444;45.822;16.092;2023-03-05T08:41:01;6.36;59.31
66586;SHT30;53444;45.822;16.092;2023-03-05T08:43:29;6.48;59.45
66586;SHT30;53444;45.822;16.092;2023-03-05T08:45:59;6.41;58.94
66586;SHT30;53444;45.822;16.092;2023-03-05T08:48:26;6.68;60.37
66586;SHT30;53444;45.822;16.092;2023-03-05T08:50:53;6.92;59.20
66586;SHT30;53444;45.822;16.092;2023-03-05T08:53:20;7.11;59.72
66586;SHT30;53444;45.822;16.092;2023-03-05T08:55:54;7.23;57.50
66586;SHT30;53444;45.822;16.092;2023-03-05T08:58:21;7.22;57.56
66586;SHT30;53444;45.822;16.092;2023-03-05T09:00:48;6.85;58.03
66586;SHT30;53444;45.822;16.092;2023-03-05T09:03:14;6.85;57.26
66586;SHT30;53444;45.822;16.092;2023-03-05T09:05:41;7.07;58.10
66586;SHT30;53444;45.822;16.092;2023-03-05T09:08:08;7.16;58.63
66586;SHT30;53444;45.822;16.092;2023-03-05T09:10:35;7.22;58.13
66586;SHT30;53444;45.822;16.092;2023-03-05T09:13:03;7.19;58.07
66586;SHT30;53444;45.822;16.092;2023-03-05T09:15:30;7.05;58.35
66586;SHT30;53444;45.822;16.092;2023-03-05T09:17:57;7.07;59.22
66586;SHT30;53444;45.822;16.092;2023-03-05T09:20:24;6.99;58.11
66586;SHT30;53444;45.822;16.092;2023-03-05T09:22:51;7.09;59.70
66586;SHT30;53444;45.822;16.092;2023-03-05T09:25:18;7.40;58.74
66586;SHT30;53444;45.822;16.092;2023-03-05T09:27:45;7.56;59.14
66586;SHT30;53444;45.822;16.092;2023-03-05T09:30:13;7.40;57.96
66586;SHT30;53444;45.822;16.092;2023-03-05T09:32:40;7.65;57.71
66586;SHT30;53444;45.822;16.092;2023-03-05T09:35:08;7.62;56.39
66586;SHT30;53444;45.822;16.092;2023-03-05T09:37:35;7.89;56.83
66586;SHT30;53444;45.822;16.092;2023-03-05T09:40:02;7.74;56.37
66586;SHT30;53444;45.822;16.092;2023-03-05T09:42:52;7.97;56.26
66586;SHT30;53444;45.822;16.092;2023-03-05T09:45:25;8.20;55.42
66586;SHT30;53444;45.822;16.092;2023-03-05T09:47:56;8.07;54.46
66586;SHT30;53444;45.822;16.092;2023-03-05T09:50:39;8.30;54.31
66586;SHT30;53444;45.822;16.092;2023-03-05T09:53:17;8.20;54.40
66586;SHT30;53444;45.822;16.092;2023-03-05T09:55:49;8.10;56.66
66586;SHT30;53444;45.822;16.092;2023-03-05T09:58:21;8.49;56.60
66586;SHT30;53444;45.822;16.092;2023-03-05T10:00:53;8.25;55.27
66586;SHT30;53444;45.822;16.092;2023-03-05T10:03:24;8.51;55.00
66586;SHT30;53444;45.822;16.092;2023-03-05T10:06:01;7.86;54.97
66586;SHT30;53444;45.822;16.092;2023-03-05T10:08:41;8.01;55.96
66586;SHT30;53444;45.822;16.092;2023-03-05T10:11:23;8.53;55.12
66586;SHT30;53444;45.822;16.092;2023-03-05T10:13:54;8.76;54.51
66586;SHT30;53444;45.822;16.092;2023-03-05T10:16:47;9.10;53.14
66586;SHT30;53444;45.822;16.092;2023-03-05T10:19:32;8.51;53.57
66586;SHT30;53444;45.822;16.092;2023-03-05T10:22:11;8.93;54.10
66586;SHT30;53444;45.822;16.092;2023-03-05T10:24:51;9.16;51.91
66586;SHT30;53444;45.822;16.092;2023-03-05T10:27:32;9.33;52.18
66586;SHT30;53444;45.822;16.092;2023-03-05T10:30:07;8.82;52.36
66586;SHT30;53444;45.822;16.092;2023-03-05T10:32:45;8.35;53.11
66586;SHT30;53444;45.822;16.092;2023-03-05T10:35:21;8.97;53.07
66586;SHT30;53444;45.822;16.092;2023-03-05T10:38:11;9.47;53.24
66586;SHT30;53444;45.822;16.092;2023-03-05T10:40:40;9.79;52.22
66586;SHT30;53444;45.822;16.092;2023-03-05T10:43:19;9.94;52.02
66586;SHT30;53444;45.822;16.092;2023-03-05T10:46:02;10.15;50.35
66586;SHT30;53444;45.822;16.092;2023-03-05T10:48:34;9.99;50.76
66586;SHT30;53444;45.822;16.092;2023-03-05T10:51:10;9.45;51.09
66586;SHT30;53444;45.822;16.092;2023-03-05T10:53:46;9.33;52.02
66586;SHT30;53444;45.822;16.092;2023-03-05T10:56:14;9.85;52.85
66586;SHT30;53444;45.822;16.092;2023-03-05T10:58:41;9.98;50.91
66586;SHT30;53444;45.822;16.092;2023-03-05T11:01:20;9.99;51.45
66586;SHT30;53444;45.822;16.092;2023-03-05T11:03:52;10.08;50.30
66586;SHT30;53444;45.822;16.092;2023-03-05T11:06:34;9.98;50.77
66586;SHT30;53444;45.822;16.092;2023-03-05T11:09:22;10.19;50.95
66586;SHT30;53444;45.822;16.092;2023-03-05T11:12:11;10.40;50.65
66586;SHT30;53444;45.822;16.092;2023-03-05T11:14:40;10.46;49.43
66586;SHT30;53444;45.822;16.092;2023-03-05T11:17:28;10.73;50.06
66586;SHT30;53444;45.822;16.092;2023-03-05T11:20:15;10.96;50.14
66586;SHT30;53444;45.822;16.092;2023-03-05T11:23:02;10.55;50.04
66586;SHT30;53444;45.822;16.092;2023-03-05T11:25:29;11.03;49.47
66586;SHT30;53444;45.822;16.092;2023-03-05T11:27:58;10.96;49.36
66586;SHT30;53444;45.822;16.092;2023-03-05T11:30:27;10.91;48.77
66586;SHT30;53444;45.822;16.092;2023-03-05T11:33:07;11.25;47.92
66586;SHT30;53444;45.822;16.092;2023-03-05T11:35:38;11.45;48.79
66586;SHT30;53444;45.822;16.092;2023-03-05T11:38:15;11.89;46.53
66586;SHT30;53444;45.822;16.092;2023-03-05T11:40:43;10.40;49.97
66586;SHT30;53444;45.822;16.092;2023-03-05T11:43:14;10.45;50.91
66586;SHT30;53444;45.822;16.092;2023-03-05T11:45:41;10.52;50.07
66586;SHT30;53444;45.822;16.092;2023-03-05T11:48:12;9.89;51.61
66586;SHT30;53444;45.822;16.092;2023-03-05T11:50:47;10.59;51.27
66586;SHT30;53444;45.822;16.092;2023-03-05T11:53:18;10.67;50.43
66586;SHT30;53444;45.822;16.092;2023-03-05T11:55:48;11.29;50.06
66586;SHT30;53444;45.822;16.092;2023-03-05T11:58:24;12.12;47.30
66586;SHT30;53444;45.822;16.092;2023-03-05T12:00:53;11.99;47.44
66586;SHT30;53444;45.822;16.092;2023-03-05T12:03:23;12.52;46.72
66586;SHT30;53444;45.822;16.092;2023-03-05T12:05:56;12.95;45.10
66586;SHT30;53444;45.822;16.092;2023-03-05T12:08:26;13.09;44.68
66586;SHT30;53444;45.822;16.092;2023-03-05T12:10:55;13.05;45.58
66586;SHT30;53444;45.822;16.092;2023-03-05T12:13:27;12.60;45.75
66586;SHT30;53444;45.822;16.092;2023-03-05T12:16:10;12.04;47.13
66586;SHT30;53444;45.822;16.092;2023-03-05T12:18:45;11.48;47.40
66586;SHT30;53444;45.822;16.092;2023-03-05T12:21:22;12.00;47.74
66586;SHT30;53444;45.822;16.092;2023-03-05T12:23:53;12.27;45.91
66586;SHT30;53444;45.822;16.092;2023-03-05T12:26:53;12.51;47.00
66586;SHT30;53444;45.822;16.092;2023-03-05T12:29:58;12.69;44.73
66586;SHT30;53444;45.822;16.092;2023-03-05T12:32:57;12.84;44.45
66586;SHT30;53444;45.822;16.092;2023-03-05T12:35:38;13.11;44.25
66586;SHT30;53444;45.822;16.092;2023-03-05T12:38:28;13.52;43.12
66586;SHT30;53444;45.822;16.092;2023-03-05T12:44:16;13.29;42.51
66586;SHT30;53444;45.822;16.092;2023-03-05T12:49:44;12.40;43.09
66586;SHT30;53444;45.822;16.092;2023-03-05T12:52:22;13.66;42.65
66586;SHT30;53444;45.822;16.092;2023-03-05T12:55:17;14.17;43.04
66586;SHT30;53444;45.822;16.092;2023-03-05T12:57:46;14.42;43.29
66586;SHT30;53444;45.822;16.092;2023-03-05T13:00:15;12.33;45.48
66586;SHT30;53444;45.822;16.092;2023-03-05T13:02:47;12.81;44.56
66586;SHT30;53444;45.822;16.092;2023-03-05T13:05:19;13.23;44.46
66586;SHT30;53444;45.822;16.092;2023-03-05T13:07:46;13.40;44.30
66586;SHT30;53444;45.822;16.092;2023-03-05T13:10:23;13.12;45.51
66586;SHT30;53444;45.822;16.092;2023-03-05T13:12:51;13.46;44.04
66586;SHT30;53444;45.822;16.092;2023-03-05T13:15:20;13.75;43.74
66586;SHT30;53444;45.822;16.092;2023-03-05T13:17:53;14.22;42.77
66586;SHT30;53444;45.822;16.092;2023-03-05T13:20:30;14.18;43.36
66586;SHT30;53444;45.822;16.092;2023-03-05T13:23:14;14.69;42.71
66586;SHT30;53444;45.822;16.092;2023-03-05T13:25:43;14.85;42.66
66586;SHT30;53444;45.822;16.092;2023-03-05T13:28:12;14.75;42.55
66586;SHT30;53444;45.822;16.092;2023-03-05T13:30:43;13.90;43.77
66586;SHT30;53444;45.822;16.092;2023-03-05T13:33:16;13.32;43.78
66586;SHT30;53444;45.822;16.092;2023-03-05T13:35:43;13.77;44.20
66586;SHT30;53444;45.822;16.092;2023-03-05T13:38:21;14.10;44.02
66586;SHT30;53444;45.822;16.092;2023-03-05T13:41:02;13.59;44.45
66586;SHT30;53444;45.822;16.092;2023-03-05T13:43:30;13.95;43.93
66586;SHT30;53444;45.822;16.092;2023-03-05T13:45:57;14.41;42.86
66586;SHT30;53444;45.822;16.092;2023-03-05T13:48:25;14.22;43.27
66586;SHT30;53444;45.822;16.092;2023-03-05T13:50:55;14.54;42.93
66586;SHT30;53444;45.822;16.092;2023-03-05T13:53:23;14.73;42.10
66586;SHT30;53444;45.822;16.092;2023-03-05T13:55:52;14.49;41.05
66586;SHT30;53444;45.822;16.092;2023-03-05T13:58:47;14.32;41.56
66586;SHT30;53444;45.822;16.092;2023-03-05T14:01:23;13.81;42.87
66586;SHT30;53444;45.822;16.092;2023-03-05T14:03:51;13.38;43.75
66586;SHT30;53444;45.822;16.092;2023-03-05T14:06:21;12.77;44.85
66586;SHT30;53444;45.822;16.092;2023-03-05T14:08:51;12.60;44.90
66586;SHT30;53444;45.822;16.092;2023-03-05T14:11:18;13.75;43.26
66586;SHT30;53444;45.822;16.092;2023-03-05T14:13:47;14.15;43.19
66586;SHT30;53444;45.822;16.092;2023-03-05T14:16:23;14.46;42.65
66586;SHT30;53444;45.822;16.092;2023-03-05T14:18:52;15.02;43.35
66586;SHT30;53444;45.822;16.092;2023-03-05T14:21:20;14.99;43.37
66586;SHT30;53444;45.822;16.092;2023-03-05T14:23:49;14.38;43.07
66586;SHT30;53444;45.822;16.092;2023-03-05T14:26:27;14.07;44.08
66586;SHT30;53444;45.822;16.092;2023-03-05T14:28:59;13.43;45.31
66586;SHT30;53444;45.822;16.092;2023-03-05T14:31:28;13.74;45.21
66586;SHT30;53444;45.822;16.092;2023-03-05T14:34:00;15.00;42.57
66586;SHT30;53444;45.822;16.092;2023-03-05T14:36:29;15.67;41.27
66586;SHT30;53444;45.822;16.092;2023-03-05T14:38:56;16.50;39.08
66586;SHT30;53444;45.822;16.092;2023-03-05T14:41:42;17.03;38.54
66586;SHT30;53444;45.822;16.092;2023-03-05T14:44:13;17.36;36.87
66586;SHT30;53444;45.822;16.092;2023-03-05T14:46:40;17.48;36.42
66586;SHT30;53444;45.822;16.092;2023-03-05T14:49:07;17.66;37.53
66586;SHT30;53444;45.822;16.092;2023-03-05T14:51:37;17.45;38.03
66586;SHT30;53444;45.822;16.092;2023-03-05T14:54:04;16.87;39.84
66586;SHT30;53444;45.822;16.092;2023-03-05T14:56:32;17.34;38.40
66586;SHT30;53444;45.822;16.092;2023-03-05T14:58:59;17.73;38.95
66586;SHT30;53444;45.822;16.092;2023-03-05T15:01:27;17.39;38.64
66586;SHT30;53444;45.822;16.092;2023-03-05T15:03:53;17.21;39.10
66586;SHT30;53444;45.822;16.092;2023-03-05T15:06:24;17.41;38.74
66586;SHT30;53444;45.822;16.092;2023-03-05T15:08:53;16.09;40.98
66586;SHT30;53444;45.822;16.092;2023-03-05T15:11:19;14.90;43.48
66586;SHT30;53444;45.822;16.092;2023-03-05T15:13:47;15.91;41.92
66586;SHT30;53444;45.822;16.092;2023-03-05T15:16:18;15.88;42.05
66586;SHT30;53444;45.822;16.092;2023-03-05T15:18:46;15.54;42.15
66586;SHT30;53444;45.822;16.092;2023-03-05T15:21:14;16.02;41.77
66586;SHT30;53444;45.822;16.092;2023-03-05T15:23:40;15.74;41.86
66586;SHT30;53444;45.822;16.092;2023-03-05T15:26:11;14.55;44.11
66586;SHT30;53444;45.822;16.092;2023-03-05T15:28:38;14.39;44.32
66586;SHT30;53444;45.822;16.092;2023-03-05T15:31:05;14.35;44.87
66586;SHT30;53444;45.822;16.092;2023-03-05T15:33:32;13.74;46.12
66586;SHT30;53444;45.822;16.092;2023-03-05T15:36:01;13.73;46.29
66586;SHT30;53444;45.822;16.092;2023-03-05T15:38:27;14.24;45.18
66586;SHT30;53444;45.822;16.092;2023-03-05T15:40:54;14.51;44.56
66586;SHT30;53444;45.822;16.092;2023-03-05T15:43:21;14.73;44.27
66586;SHT30;53444;45.822;16.092;2023-03-05T15:45:47;14.54;44.74
66586;SHT30;53444;45.822;16.092;2023-03-05T15:48:14;14.39;45.04
66586;SHT30;53444;45.822;16.092;2023-03-05T15:50:41;14.22;44.87